VTBO

Trat Airport

Thailand
TAF VTBO 172300Z 1800/1824 04008KT 7000 FEW020 BECMG 1814/1816 00000KT
Issued Valid From Valid To
Jan-17 @ 23:00 UTC
(59 minutes ago)
Jan-18 @ 00:00 UTC
(in a minute)
Jan-19 @ 00:00 UTC
(in 24 hours)
Jan-18 @ 00:00 to Jan-18 @ 14:00
TAF VTBO 172300Z 1800/1824 04008KT 7000 FEW020
Wind Visibility Clouds
40° at 8 knots 7,001 meters
  • Few at 2,000' AGL
Becoming Jan-18 @ 14:00 to Jan-19 @ 00:00
BECMG 1814/1816 00000KT
Visibility Clouds
7,001 meters
  • Few at 2,000' AGL
TAF VTBO 172300Z 1800/1824 04008KT 7000 FEW020 BECMG 1814/1816 00000KT
Issued Jan-17 @ 23:00 UTC
(59 minutes ago)
Valid From Jan-18 @ 00:00 UTC
(in a minute)
Valid To Jan-19 @ 00:00 UTC
(in 24 hours)
Jan-18 @ 00:00 - Jan-18 @ 14:00
Wind Visibility
40° at 8 knots 7,001 meters
Clouds
  • Few at 2,000' AGL
Becoming Jan-18 @ 14:00 - Jan-19 @ 00:00
Clouds
  • Few at 2,000' AGL